createdAt,value
2023-04-17T00:03:32.539Z,22.6
2023-04-17T00:09:25.784Z,22.7
2023-04-17T00:15:31.664Z,22.6
2023-04-17T00:21:08.734Z,22.7
2023-04-17T00:26:44.637Z,22.6
2023-04-17T00:32:21.587Z,22.7
2023-04-17T00:38:12.717Z,22.7
2023-04-17T00:44:04.563Z,22.7
2023-04-17T00:49:56.226Z,22.7
2023-04-17T00:55:47.936Z,22.7
2023-04-17T01:01:40.620Z,22.7
2023-04-17T01:07:34.886Z,22.7
2023-04-17T01:12:55.435Z,22.7
2023-04-17T01:18:46.949Z,22.7
2023-04-17T01:24:38.750Z,22.7
2023-04-17T01:30:29.562Z,22.7
2023-04-17T01:36:21.678Z,22.7
2023-04-17T01:41:57.515Z,22.7
2023-04-17T01:47:49.482Z,22.7
2023-04-17T01:53:25.969Z,22.8
2023-04-17T01:59:02.134Z,22.8
2023-04-17T02:04:55.112Z,22.8
2023-04-17T02:10:32.174Z,22.8
2023-04-17T02:16:23.440Z,22.8
2023-04-17T02:21:59.833Z,22.8
2023-04-17T02:27:36.540Z,22.9
2023-04-17T02:33:28.410Z,23
2023-04-17T02:39:19.403Z,23.1
2023-04-17T02:45:11.114Z,23.1
2023-04-17T02:50:47.947Z,23
2023-04-17T02:56:39.174Z,22.9
2023-04-17T03:02:31.608Z,22.9
2023-04-17T03:08:24.738Z,22.9
2023-04-17T03:14:15.960Z,22.9
2023-04-17T03:20:10.712Z,22.9
2023-04-17T03:26:02.267Z,22.9
2023-04-17T03:31:40.687Z,22.8
2023-04-17T03:37:17.226Z,22.9
2023-04-17T03:43:09.427Z,22.8
2023-04-17T03:48:45.670Z,22.8
2023-04-17T03:54:22.248Z,22.8
2023-04-17T04:00:13.645Z,22.8
2023-04-17T04:05:51.308Z,22.8
2023-04-17T04:11:42.700Z,22.8
2023-04-17T04:17:19.564Z,22.8
2023-04-17T04:22:56.109Z,22.8
2023-04-17T04:28:48.256Z,22.8
2023-04-17T04:34:26.482Z,22.8
2023-04-17T04:39:50.017Z,22.8
2023-04-17T04:45:26.301Z,22.9
2023-04-17T04:50:47.578Z,22.9
2023-04-17T04:56:07.114Z,22.9
2023-04-17T05:01:43.594Z,22.9
2023-04-17T05:07:22.643Z,22.9
2023-04-17T05:12:58.720Z,22.9
2023-04-17T05:18:52.677Z,22.9
2023-04-17T05:24:44.342Z,22.7
2023-04-17T05:30:19.967Z,22.4
2023-04-17T05:35:56.858Z,22.3
2023-04-17T05:41:36.421Z,22.2
2023-04-17T05:47:12.058Z,22.1
2023-04-17T05:52:48.582Z,22.1
2023-04-17T05:58:39.489Z,22
2023-04-17T06:04:18.904Z,21.9
2023-04-17T06:09:58.773Z,21.9
2023-04-17T06:15:34.802Z,21.9
2023-04-17T06:21:12.893Z,21.9
2023-04-17T06:26:49.018Z,21.9
2023-04-17T06:32:24.799Z,21.8
2023-04-17T06:38:09.044Z,21.8
2023-04-17T06:43:30.279Z,21.8
2023-04-17T06:49:07.136Z,21.8
2023-04-17T06:54:42.419Z,21.8
2023-04-17T07:00:19.348Z,21.8
2023-04-17T07:06:00.860Z,21.8
2023-04-17T07:11:20.827Z,21.8
2023-04-17T07:16:42.635Z,21.7
2023-04-17T07:22:20.348Z,21.7
2023-04-17T07:27:56.477Z,21.6
2023-04-17T07:33:33.477Z,32.1
2023-04-17T07:39:13.475Z,26.8
2023-04-17T07:44:49.389Z,25.8
2023-04-17T07:50:16.503Z,25.3
2023-04-17T07:55:53.553Z,24.9
2023-04-17T08:01:16.852Z,24.6
2023-04-17T08:06:56.278Z,24.3
2023-04-17T08:12:46.149Z,31.9
2023-04-17T08:18:07.181Z,31.5
2023-04-17T08:23:44.127Z,31.6
2023-04-17T08:29:24.031Z,31.9
2023-04-17T08:35:32.872Z,32.1
2023-04-17T08:41:12.089Z,32.3
2023-04-17T08:47:05.854Z,32.1
2023-04-17T08:52:57.540Z,31.9
2023-04-17T08:58:18.568Z,31.8
2023-04-17T09:03:57.808Z,32.1
2023-04-17T09:09:34.576Z,32.4
2023-04-17T09:15:27.152Z,32.7
2023-04-17T09:20:49.217Z,32.6
2023-04-17T09:26:09.755Z,33
2023-04-17T09:31:31.394Z,33.2
2023-04-17T09:37:11.213Z,33.3
2023-04-17T09:43:02.829Z,33.3
2023-04-17T09:48:54.794Z,33
2023-04-17T09:54:48.130Z,32.4
2023-04-17T10:00:24.471Z,31.8
2023-04-17T10:06:18.729Z,31.6
2023-04-17T10:12:10.757Z,31.6
2023-04-17T10:18:03.040Z,31.7
2023-04-17T10:23:57.445Z,32
2023-04-17T10:29:49.895Z,32.5
2023-04-17T10:35:46.196Z,33.1
2023-04-17T10:41:23.152Z,33.8
2023-04-17T10:47:16.143Z,34
2023-04-17T10:53:09.326Z,34.3
2023-04-17T10:59:04.902Z,34.6
2023-04-17T11:04:59.305Z,35.2
2023-04-17T11:10:36.705Z,35.3
2023-04-17T11:16:29.641Z,35.1
2023-04-17T11:22:07.069Z,35.1
2023-04-17T11:27:43.649Z,35.5
2023-04-17T11:33:05.050Z,36.6
2023-04-17T11:38:42.272Z,35.9
2023-04-17T11:44:03.698Z,34.9
2023-04-17T11:49:56.038Z,34.7
2023-04-17T11:55:47.523Z,34.8
2023-04-17T12:01:39.849Z,34.9
2023-04-17T12:07:19.834Z,34.9
2023-04-17T12:13:12.135Z,35.3
2023-04-17T12:18:48.138Z,35.9
2023-04-17T12:24:39.972Z,36.9
2023-04-17T12:30:16.789Z,37.7
2023-04-17T12:35:53.212Z,38
2023-04-17T12:41:47.047Z,38.1
2023-04-17T12:47:37.013Z,38.3
2023-04-17T12:53:28.399Z,38
2023-04-17T12:59:19.923Z,37.9
2023-04-17T13:05:14.947Z,38
2023-04-17T13:10:50.527Z,38.1
2023-04-17T13:16:26.702Z,38.1
2023-04-17T13:22:20.449Z,38
2023-04-17T13:28:11.694Z,37.9
2023-04-17T13:34:05.857Z,37.7
2023-04-17T13:40:00.682Z,36.1
2023-04-17T13:45:37.502Z,35.5
2023-04-17T13:51:31.675Z,35.5
2023-04-17T13:57:24.216Z,35.4
2023-04-17T14:03:01.319Z,35.7
2023-04-17T14:08:42.953Z,35.4
2023-04-17T14:14:35.978Z,35.3
2023-04-17T14:20:35.650Z,35.1
2023-04-17T14:25:56.551Z,35.1
2023-04-17T14:31:32.861Z,34.9
2023-04-17T14:37:14.311Z,34.7
2023-04-17T14:43:07.410Z,34.6
2023-04-17T14:49:11.680Z,34.4
2023-04-17T14:55:02.128Z,34.3
2023-04-17T15:00:53.426Z,34.1
2023-04-17T15:06:47.082Z,33.8
2023-04-17T15:12:39.277Z,33.5
2023-04-17T15:18:15.453Z,33.3
2023-04-17T15:24:07.320Z,33
2023-04-17T15:29:58.404Z,32.7
2023-04-17T15:35:49.772Z,32.4
2023-04-17T15:41:43.591Z,32.1
2023-04-17T15:47:37.356Z,31.8
2023-04-17T15:53:53.778Z,31.4
2023-04-17T15:59:45.203Z,31.1
2023-04-17T16:05:38.593Z,30.8
2023-04-17T16:11:14.853Z,30.5
2023-04-17T16:17:06.514Z,30.2
2023-04-17T16:22:58.112Z,29.9
2023-04-17T16:28:50.036Z,29.6
2023-04-17T16:34:27.194Z,29.3
2023-04-17T16:40:07.778Z,28.9
2023-04-17T16:45:45.461Z,28.6
2023-04-17T16:52:18.145Z,27.6
2023-04-17T16:58:09.057Z,26.8
2023-04-17T17:04:01.649Z,26.2
2023-04-17T17:09:22.585Z,25.7
2023-04-17T17:14:43.417Z,25.3
2023-04-17T17:20:35.744Z,24.9
2023-04-17T17:26:10.551Z,24.7
2023-04-17T17:32:02.460Z,24.4
2023-04-17T17:37:50.274Z,23.9
2023-04-17T17:43:26.871Z,23.3
2023-04-17T17:49:20.681Z,22.9
2023-04-17T17:55:14.734Z,22.6
2023-04-17T18:01:04.509Z,22.4
2023-04-17T18:06:43.519Z,22.3
2023-04-17T18:12:04.236Z,22
2023-04-17T18:17:41.242Z,21.8
2023-04-17T18:23:17.202Z,21.4
2023-04-17T18:28:53.017Z,21
2023-04-17T18:34:29.846Z,20.8
2023-04-17T18:40:24.222Z,20.6
2023-04-17T18:45:59.934Z,20.5
2023-04-17T18:51:36.924Z,20.3
2023-04-17T18:57:19.173Z,20.2
2023-04-17T19:02:41.374Z,20.1
2023-04-17T19:08:03.707Z,20.1
2023-04-17T19:13:56.742Z,20
2023-04-17T19:19:49.589Z,20
2023-04-17T19:25:42.258Z,20.8
2023-04-17T19:31:19.556Z,22.1
2023-04-17T19:37:13.059Z,23.6
2023-04-17T19:42:47.010Z,24.9
2023-04-17T19:48:42.096Z,24.9
2023-04-17T19:54:05.023Z,27.7
2023-04-17T19:59:42.944Z,28.6
2023-04-17T20:05:24.144Z,29.7
2023-04-17T20:11:00.846Z,30.5
2023-04-17T20:16:37.345Z,31.1
2023-04-17T20:22:31.765Z,31.4
2023-04-17T20:28:23.360Z,31.6
2023-04-17T20:34:16.489Z,31.7
2023-04-17T20:39:36.376Z,31.8
2023-04-17T20:45:28.710Z,31.9
2023-04-17T20:51:33.722Z,31.9
2023-04-17T20:57:25.379Z,31.9
2023-04-17T21:03:15.539Z,31.9
2023-04-17T21:08:52.764Z,31.9
2023-04-17T21:14:13.407Z,32
2023-04-17T21:19:49.915Z,31.9
2023-04-17T21:25:41.012Z,31.9
2023-04-17T21:31:16.725Z,31.9
2023-04-17T21:36:53.621Z,31.9
2023-04-17T21:42:31.922Z,31.9
2023-04-17T21:48:23.132Z,31.9
2023-04-17T21:54:14.925Z,31.8
2023-04-17T22:00:05.797Z,31.8
2023-04-17T22:05:57.966Z,31.8
2023-04-17T22:11:29.924Z,31.8
2023-04-17T22:17:06.241Z,31.8
2023-04-17T22:22:58.078Z,31.7
2023-04-17T22:28:34.278Z,31.7
2023-04-17T22:34:10.226Z,31.7
2023-04-17T22:40:01.208Z,31.6
2023-04-17T22:45:37.904Z,31.6
2023-04-17T22:50:59.307Z,31.6
2023-04-17T22:56:46.296Z,31.6
2023-04-17T23:02:37.939Z,31.6
2023-04-17T23:08:14.770Z,31.5
2023-04-17T23:14:06.259Z,31.5
2023-04-17T23:19:27.791Z,31.4
2023-04-17T23:24:53.824Z,31.4
2023-04-17T23:30:29.669Z,31.4
2023-04-17T23:36:06.544Z,31.4
2023-04-17T23:41:42.951Z,31.4
2023-04-17T23:47:19.645Z,31.3
2023-04-17T23:53:11.782Z,31.3
2023-04-17T23:59:03.775Z,31.3
